createdAt,value
2023-01-27T09:46:17.002Z,98853.28
2023-01-27T09:49:50.896Z,98862.19
2023-01-27T09:53:12.514Z,98862.31
2023-01-27T09:56:39.445Z,98868.03
2023-01-27T09:59:57.118Z,98869.84
2023-01-27T10:03:05.921Z,98879.53
2023-01-27T10:06:19.988Z,98870.38
2023-01-27T10:09:39.087Z,98879.38
2023-01-27T10:13:12.955Z,98864.28
2023-01-27T10:16:21.739Z,98874.63
2023-01-27T10:20:06.050Z,98864.63
2023-01-27T10:23:30.882Z,98856.47
2023-01-27T10:26:54.957Z,98857.81
2023-01-27T10:29:38.080Z,98848.22
2023-01-27T10:32:37.689Z,98830.00
2023-01-27T10:35:20.951Z,98833.91
2023-01-27T10:38:42.600Z,98844.38
2023-01-27T10:41:41.727Z,98849.81
2023-01-27T10:44:46.581Z,98833.91
2023-01-27T10:48:14.908Z,98846.56
2023-01-27T10:51:17.850Z,98841.41
2023-01-27T10:54:07.575Z,98857.19
2023-01-27T10:57:04.463Z,98855.16
2023-01-27T11:00:21.870Z,98846.34
2023-01-27T11:03:09.863Z,98848.69
2023-01-27T11:05:58.065Z,98849.09
2023-01-27T11:08:44.961Z,98828.84
2023-01-27T11:11:33.463Z,98839.81
2023-01-27T11:14:39.346Z,98829.75
2023-01-27T11:17:42.512Z,98833.72
2023-01-27T11:20:35.444Z,98821.97
2023-01-27T11:23:45.655Z,98822.56
2023-01-27T11:26:43.540Z,98822.94
2023-01-27T11:29:49.911Z,98822.13
2023-01-27T11:32:51.260Z,98821.91
2023-01-27T11:35:18.686Z,98821.06
2023-01-27T11:37:51.265Z,98818.28
2023-01-27T11:40:33.634Z,98822.22
2023-01-27T11:43:02.217Z,98808.19
2023-01-27T11:45:36.624Z,98818.88
2023-01-27T11:48:12.537Z,98826.25
2023-01-27T11:50:43.978Z,98822.75
2023-01-27T11:53:29.801Z,98820.22
2023-01-27T11:56:07.622Z,98829.41
2023-01-27T11:59:18.331Z,98837.84
2023-01-27T12:02:24.126Z,98833.22
2023-01-27T12:05:14.579Z,98843.19
2023-01-27T12:08:04.691Z,98833.31
2023-01-27T12:10:44.266Z,98835.59
2023-01-27T12:13:21.143Z,98821.72
2023-01-27T12:16:00.591Z,98814.06
2023-01-27T12:18:32.277Z,98821.81
2023-01-27T12:21:06.591Z,98809.69
2023-01-27T12:23:46.858Z,98806.13
2023-01-27T12:26:14.512Z,98807.66
2023-01-27T12:28:54.548Z,98805.81
2023-01-27T12:31:42.200Z,98803.84
2023-01-27T12:34:36.650Z,98809.19
2023-01-27T12:37:07.859Z,98809.47
2023-01-27T12:40:00.483Z,98810.56
2023-01-27T12:42:44.286Z,98811.38
2023-01-27T12:45:35.520Z,98803.91
2023-01-27T12:48:20.766Z,98795.22
2023-01-27T12:50:51.013Z,98797.44
2023-01-27T12:53:27.728Z,98793.09
2023-01-27T12:56:20.916Z,98774.78
2023-01-27T12:58:59.728Z,98777.72
2023-01-27T13:01:38.416Z,98782.47
2023-01-27T13:04:25.215Z,98793.75
2023-01-27T13:07:03.014Z,98785.88
2023-01-27T13:10:03.511Z,98794.94
2023-01-27T13:13:00.749Z,98789.53
2023-01-27T13:15:31.582Z,98807.03
2023-01-27T13:18:12.075Z,98799.47
2023-01-27T13:20:49.566Z,98793.94
2023-01-27T13:23:34.819Z,98806.84
2023-01-27T13:26:05.015Z,98805.22
2023-01-27T13:28:55.885Z,98819.66
2023-01-27T13:32:16.078Z,98820.16
2023-01-27T13:35:25.955Z,98827.97
2023-01-27T13:38:44.216Z,98813.91
2023-01-27T13:41:27.163Z,98815.09
2023-01-27T13:44:42.451Z,98815.91
2023-01-27T13:47:27.998Z,98816.09
2023-01-27T13:50:16.962Z,98812.28
2023-01-27T13:52:50.159Z,98807.75
2023-01-27T13:56:19.171Z,98804.03
2023-01-27T13:59:40.930Z,98808.38
2023-01-27T14:03:05.124Z,98804.41
2023-01-27T14:06:24.560Z,98814.50
2023-01-27T14:10:08.687Z,98812.09
2023-01-27T14:13:23.872Z,98809.97
2023-01-27T14:16:25.949Z,98820.56
2023-01-27T14:19:41.394Z,98824.50
2023-01-27T14:23:19.969Z,98820.16
2023-01-27T14:27:09.856Z,98822.78
2023-01-27T14:30:13.482Z,98805.84
2023-01-27T14:32:55.377Z,98815.31
2023-01-27T14:36:11.516Z,98820.56
2023-01-27T14:39:14.346Z,98822.56
2023-01-27T14:45:28.817Z,98827.22
2023-01-27T14:48:36.760Z,98828.22
2023-01-27T14:51:43.826Z,98819.56
2023-01-27T14:55:31.907Z,98835.06
2023-01-27T14:58:44.662Z,98843.84
2023-01-27T15:01:32.141Z,98849.28
2023-01-27T15:05:02.971Z,98851.31
2023-01-27T15:08:18.605Z,98847.75
2023-01-27T15:11:31.696Z,98857.75
2023-01-27T15:14:45.252Z,98859.25
2023-01-27T15:17:46.610Z,98863.00
2023-01-27T15:20:52.006Z,98868.31
2023-01-27T15:24:18.556Z,98872.16
2023-01-27T15:26:47.965Z,98867.22
2023-01-27T15:29:17.336Z,98879.63
2023-01-27T15:32:28.463Z,98869.41
2023-01-27T15:35:37.916Z,98859.25
2023-01-27T15:38:35.139Z,98864.78
2023-01-27T15:41:12.147Z,98868.53
2023-01-27T15:44:02.240Z,98873.16
2023-01-27T15:46:37.316Z,98860.63
2023-01-27T15:49:12.853Z,98883.00
2023-01-27T15:51:40.365Z,98876.28
2023-01-27T15:54:27.450Z,98879.50
2023-01-27T15:56:58.172Z,98883.91
2023-01-27T15:59:58.736Z,98872.34
2023-01-27T16:02:32.378Z,98875.53
2023-01-27T16:05:36.564Z,98880.00
2023-01-27T16:08:13.825Z,98869.19
2023-01-27T16:10:42.232Z,98880.38
2023-01-27T16:13:29.793Z,98879.41
2023-01-27T16:16:18.870Z,98888.44
2023-01-27T16:19:29.240Z,98891.47
2023-01-27T16:22:14.933Z,98888.94
2023-01-27T16:25:27.014Z,98895.81
2023-01-27T16:28:12.966Z,98891.28
2023-01-27T16:30:56.773Z,98896.53
2023-01-27T16:33:51.708Z,98900.75
2023-01-27T16:36:36.157Z,98901.97
2023-01-27T16:39:43.619Z,98909.03
2023-01-27T16:42:16.905Z,98910.63
2023-01-27T16:44:51.128Z,98922.84
2023-01-27T16:47:45.522Z,98920.34
2023-01-27T16:50:42.600Z,98907.69
2023-01-27T16:53:25.345Z,98926.53
2023-01-27T16:56:15.271Z,98917.03
2023-01-27T16:58:46.725Z,98924.09
2023-01-27T17:01:39.723Z,98920.31
2023-01-27T17:04:19.869Z,98928.34
2023-01-27T17:06:51.800Z,98926.66
2023-01-27T17:09:35.091Z,98935.00
2023-01-27T17:12:02.641Z,98936.25
2023-01-27T17:14:45.988Z,98946.19
2023-01-27T17:17:21.099Z,98943.31
2023-01-27T17:19:52.806Z,98946.88
2023-01-27T17:22:38.021Z,98950.22
2023-01-27T17:25:37.608Z,98946.25
2023-01-27T17:28:22.114Z,98945.47
2023-01-27T17:30:50.670Z,98948.31
2023-01-27T17:33:21.465Z,98934.78
2023-01-27T17:36:10.060Z,98939.44
2023-01-27T17:38:51.823Z,98946.47
2023-01-27T17:41:37.937Z,98949.19
2023-01-27T17:44:14.721Z,98948.13
2023-01-27T17:46:42.391Z,98951.22
2023-01-27T17:49:18.793Z,98938.41
2023-01-27T17:51:55.755Z,98941.84
2023-01-27T17:54:39.272Z,98945.00
2023-01-27T17:57:32.670Z,98947.38
